Time;durP1;ratioP1;P1;durP2;ratioP2;P2;SDS_P1;SDS_P2;PMS_P1;PMS_P2;Temp;Humidity;BMP_temperature;BMP_pressure;BME280_temperature;BME280_humidity;BME280_pressure;Samples;Min_cycle;Max_cycle;Signal;HPM_P1;HPM_P2
2022/12/02 00:01:13;;;;;;;46.90;23.67;;;4.40;99.90;;;;;;5074743;28;20029;-59
2022/12/02 00:03:40;;;;;;;47.72;24.05;;;;;;;;;;5079644;28;20063;-59
2022/12/02 00:06:12;;;;;;;45.90;23.58;;;;;;;;;;5054090;28;20043;-59
2022/12/02 00:08:38;;;;;;;52.97;23.33;;;4.50;99.90;;;;;;5079422;28;20509;-58
2022/12/02 00:11:06;;;;;;;45.10;22.42;;;;;;;;;;5077364;28;20043;-59
2022/12/02 00:13:42;;;;;;;45.20;22.17;;;4.50;99.90;;;;;;5078116;28;20504;-59
2022/12/02 00:16:16;;;;;;;44.83;23.73;;;;;;;;;;5078846;28;20044;-59
2022/12/02 00:18:42;;;;;;;47.92;24.23;;;;;;;;;;5076302;28;20101;-59
2022/12/02 00:21:08;;;;;;;43.42;23.13;;;;;;;;;;5084988;28;20652;-60
2022/12/02 00:23:33;;;;;;;42.03;20.38;;;4.40;99.90;;;;;;5074504;28;20039;-58
2022/12/02 00:25:59;;;;;;;46.35;22.73;;;;;;;;;;5076373;28;20467;-58
2022/12/02 00:28:25;;;;;;;48.40;23.95;;;;;;;;;;5072302;28;20048;-59
2022/12/02 00:30:51;;;;;;;44.25;21.55;;;4.40;99.90;;;;;;5074631;28;20043;-59
2022/12/02 00:33:17;;;;;;;40.70;21.95;;;;;;;;;;5077039;28;20431;-59
2022/12/02 00:35:43;;;;;;;45.90;21.48;;;;;;;;;;5076419;28;20079;-59
2022/12/02 00:38:09;;;;;;;41.65;21.58;;;;;;;;;;5072652;28;20032;-60
2022/12/02 00:40:35;;;;;;;42.88;20.60;;;;;;;;;;5074912;28;20085;-59
2022/12/02 00:48:30;;;;;;;37.33;21.15;;;;;;;;;;5062919;28;20155;-60
2022/12/02 00:50:56;;;;;;;35.05;19.67;;;;;;;;;;5085934;28;20047;-59
2022/12/02 00:53:22;;;;;;;42.33;21.52;;;;;;;;;;5074607;28;20040;-59
2022/12/02 00:55:48;;;;;;;39.75;20.50;;;4.40;99.90;;;;;;5072649;28;20054;-58
2022/12/02 00:58:13;;;;;;;43.90;21.90;;;4.50;99.90;;;;;;5080511;28;20454;-59
2022/12/02 01:00:39;;;;;;;42.05;20.98;;;;;;;;;;5073470;28;20044;-59
2022/12/02 01:03:05;;;;;;;43.38;20.30;;;;;;;;;;5077975;28;20043;-60
2022/12/02 01:05:31;;;;;;;38.42;21.55;;;;;;;;;;5073958;28;20044;-60
2022/12/02 01:07:57;;;;;;;40.92;20.83;;;;;;;;;;5074793;28;20040;-59
2022/12/02 01:10:23;;;;;;;42.67;20.90;;;;;;;;;;5056082;28;20143;-58
2022/12/02 01:12:49;;;;;;;41.53;19.35;;;4.20;99.90;;;;;;5072436;28;20155;-58
2022/12/02 01:15:14;;;;;;;43.72;22.77;;;4.20;99.90;;;;;;5063203;28;20040;-58
2022/12/02 01:17:40;;;;;;;45.33;21.55;;;;;;;;;;5072800;28;20056;-59
2022/12/02 01:20:07;;;;;;;48.80;24.23;;;4.40;99.90;;;;;;5078019;28;20038;-60
2022/12/02 01:22:33;;;;;;;43.63;21.23;;;;;;;;;;5073554;28;20122;-60
2022/12/02 01:24:59;;;;;;;41.97;20.77;;;;;;;;;;5075078;28;20032;-58
2022/12/02 01:27:25;;;;;;;41.72;22.00;;;;;;;;;;5055206;28;20041;-59
2022/12/02 01:29:51;;;;;;;43.90;22.30;;;;;;;;;;5072106;28;20109;-59
2022/12/02 01:32:18;;;;;;;38.70;21.25;;;;;;;;;;5080884;28;20091;-59
2022/12/02 01:34:44;;;;;;;38.78;21.70;;;;;;;;;;5076966;28;20048;-59
2022/12/02 01:37:10;;;;;;;43.33;21.98;;;;;;;;;;5051789;28;20127;-58
2022/12/02 01:39:36;;;;;;;40.63;20.33;;;4.10;99.90;;;;;;5077025;28;20036;-60
2022/12/02 01:42:02;;;;;;;42.40;20.98;;;;;;;;;;5077433;28;20031;-59
2022/12/02 01:44:28;;;;;;;41.15;20.65;;;;;;;;;;5087766;28;20044;-59
2022/12/02 01:46:55;;;;;;;41.50;21.55;;;4.20;99.90;;;;;;5085870;28;20124;-59
2022/12/02 01:49:21;;;;;;;40.65;20.65;;;4.20;99.90;;;;;;5073364;28;20043;-60
2022/12/02 01:51:47;;;;;;;43.10;22.67;;;4.40;99.90;;;;;;5077532;28;20092;-59
2022/12/02 01:54:13;;;;;;;42.05;21.15;;;;;;;;;;5056074;28;20495;-60
2022/12/02 01:56:39;;;;;;;41.20;21.52;;;;;;;;;;5083269;28;20162;-60
2022/12/02 01:59:05;;;;;;;39.65;20.85;;;;;;;;;;5080442;28;20032;-59
2022/12/02 02:01:33;;;;;;;39.45;20.60;;;3.90;99.90;;;;;;5079188;28;20043;-59
2022/12/02 02:03:59;;;;;;;42.80;22.33;;;;;;;;;;5079980;28;20485;-59
2022/12/02 02:06:27;;;;;;;42.10;21.13;;;4.20;99.90;;;;;;5077251;28;20631;-60
2022/12/02 02:08:54;;;;;;;37.58;19.75;;;;;;;;;;5087010;28;20066;-58
2022/12/02 02:11:20;;;;;;;40.65;21.73;;;;;;;;;;5073853;28;20045;-58
2022/12/02 02:13:46;;;;;;;40.45;21.73;;;;;;;;;;5081875;28;20131;-59
2022/12/02 02:16:13;;;;;;;41.65;22.27;;;;;;;;;;5061117;28;20101;-59
2022/12/02 02:18:39;;;;;;;43.63;22.25;;;;;;;;;;5078468;28;20557;-59
2022/12/02 02:21:06;;;;;;;41.72;20.98;;;;;;;;;;5079286;28;20402;-60
2022/12/02 02:23:32;;;;;;;43.13;21.10;;;;;;;;;;5077029;28;20036;-59
2022/12/02 02:25:59;;;;;;;38.78;20.23;;;;;;;;;;5078688;28;20047;-59
2022/12/02 02:28:26;;;;;;;40.15;20.00;;;;;;;;;;5073259;28;20048;-58
2022/12/02 02:30:53;;;;;;;40.67;22.27;;;;;;;;;;5078054;28;20039;-59
2022/12/02 02:33:19;;;;;;;41.97;21.80;;;;;;;;;;5079724;28;20045;-60
2022/12/02 02:35:46;;;;;;;40.20;20.38;;;;;;;;;;5078792;28;20110;-60
2022/12/02 02:38:14;;;;;;;44.63;22.60;;;;;;;;;;5074766;28;20037;-61
2022/12/02 02:40:40;;;;;;;44.60;22.00;;;;;;;;;;5078511;28;20032;-60
2022/12/02 02:43:06;;;;;;;42.05;23.02;;;;;;;;;;5080887;28;20036;-58
2022/12/02 02:45:35;;;;;;;40.47;21.00;;;;;;;;;;5076633;28;20097;-59
2022/12/02 02:48:03;;;;;;;37.55;20.63;;;4.10;99.90;;;;;;5079681;28;20085;-60
2022/12/02 02:50:29;;;;;;;44.33;22.15;;;3.90;99.90;;;;;;5084354;28;20044;-58
2022/12/02 02:52:55;;;;;;;39.65;20.15;;;;;;;;;;5080237;28;20055;-59
2022/12/02 02:55:23;;;;;;;38.50;20.13;;;;;;;;;;5074756;28;20044;-60
2022/12/02 02:57:49;;;;;;;36.55;19.40;;;;;;;;;;5079123;28;20040;-59
2022/12/02 03:00:18;;;;;;;39.17;20.15;;;3.70;99.90;;;;;;5079458;28;20117;-59
2022/12/02 03:02:46;;;;;;;38.33;20.42;;;;;;;;;;5076618;28;20044;-60
2022/12/02 03:05:12;;;;;;;38.95;19.88;;;;;;;;;;5078895;28;20032;-59
2022/12/02 03:07:38;;;;;;;39.28;19.27;;;;;;;;;;5074706;28;20482;-59
2022/12/02 03:10:05;;;;;;;37.70;20.20;;;3.60;99.90;;;;;;5060061;28;20501;-58
2022/12/02 03:12:31;;;;;;;38.08;19.15;;;3.90;99.90;;;;;;5074725;28;20452;-58
2022/12/02 03:14:58;;;;;;;37.83;17.95;;;;;;;;;;5110463;22;20071;-49
2022/12/02 03:17:24;;;;;;;35.35;18.55;;;;;;;;;;5109020;28;20044;-52
2022/12/02 03:19:50;;;;;;;41.20;21.25;;;;;;;;;;5086416;28;20047;-51
2022/12/02 03:22:26;;;;;;;34.70;17.73;;;;;;;;;;5091015;28;20054;-52
2022/12/02 03:24:52;;;;;;;38.65;19.48;;;;;;;;;;5099930;28;20089;-52
2022/12/02 03:27:18;;;;;;;36.75;18.27;;;;;;;;;;5081399;28;20127;-50
2022/12/02 03:29:44;;;;;;;34.45;18.88;;;;;;;;;;5091182;28;20040;-48
2022/12/02 03:32:10;;;;;;;37.40;17.48;;;3.90;99.90;;;;;;5085272;28;20036;-49
2022/12/02 03:34:38;;;;;;;36.70;19.20;;;;;;;;;;5087485;28;20122;-49
2022/12/02 03:37:03;;;;;;;37.10;18.65;;;3.70;99.90;;;;;;5092480;28;20031;-48
2022/12/02 03:39:29;;;;;;;35.90;17.33;;;;;;;;;;5094771;28;20039;-49
2022/12/02 03:41:55;;;;;;;36.92;18.77;;;3.90;99.90;;;;;;5082841;28;20382;-51
2022/12/02 03:44:21;;;;;;;37.45;18.77;;;3.90;99.90;;;;;;5086744;28;20055;-50
2022/12/02 03:46:47;;;;;;;36.05;18.25;;;;;;;;;;5090507;28;20135;-52
2022/12/02 03:49:14;;;;;;;37.92;18.75;;;4.00;99.90;;;;;;5072376;28;20114;-52
2022/12/02 03:51:41;;;;;;;35.25;19.13;;;;;;;;;;5090244;28;20032;-52
2022/12/02 03:54:06;;;;;;;38.45;18.70;;;3.80;99.90;;;;;;5095523;28;20037;-52
2022/12/02 03:56:37;;;;;;;35.47;18.25;;;;;;;;;;5083230;28;20040;-53
2022/12/02 03:59:03;;;;;;;38.25;17.88;;;;;;;;;;5078960;28;20028;-52
2022/12/02 04:01:28;;;;;;;38.00;18.50;;;3.80;99.90;;;;;;5088417;28;20390;-48
2022/12/02 04:03:54;;;;;;;37.08;19.67;;;3.80;99.90;;;;;;5101177;28;20061;-50
2022/12/02 04:06:20;;;;;;;37.10;19.13;;;;;;;;;;5088754;28;20085;-49
2022/12/02 04:08:46;;;;;;;43.10;20.65;;;;;;;;;;5101693;28;20678;-51
2022/12/02 04:11:12;;;;;;;38.17;18.85;;;;;;;;;;5088227;28;20128;-52
2022/12/02 04:13:38;;;;;;;42.22;20.80;;;3.90;99.90;;;;;;5089652;28;20115;-52
2022/12/02 04:16:04;;;;;;;36.85;18.25;;;3.90;99.90;;;;;;5107433;28;20028;-50
2022/12/02 04:18:30;;;;;;;40.33;20.88;;;;;;;;;;5090327;28;20035;-51
2022/12/02 04:20:56;;;;;;;41.38;19.75;;;;;;;;;;5090376;28;20397;-49
2022/12/02 04:23:22;;;;;;;41.85;20.08;;;;;;;;;;5088902;28;20126;-50
2022/12/02 04:25:48;;;;;;;44.35;20.75;;;;;;;;;;5090705;28;20051;-50
2022/12/02 04:28:14;;;;;;;43.67;20.63;;;;;;;;;;5093465;28;20772;-52
2022/12/02 04:30:40;;;;;;;44.00;20.67;;;;;;;;;;5083887;28;20639;-48
2022/12/02 04:33:06;;;;;;;36.47;19.27;;;;;;;;;;5095362;28;20044;-51
2022/12/02 04:35:32;;;;;;;45.65;21.35;;;;;;;;;;5090875;28;20051;-52
2022/12/02 04:37:58;;;;;;;38.10;18.50;;;;;;;;;;5090307;28;20047;-48
2022/12/02 04:40:24;;;;;;;40.83;18.38;;;;;;;;;;5090630;28;20487;-52
2022/12/02 04:42:50;;;;;;;36.90;18.75;;;;;;;;;;5090864;28;20032;-51
2022/12/02 04:45:16;;;;;;;39.33;19.98;;;;;;;;;;5080550;28;20442;-50
2022/12/02 04:47:42;;;;;;;40.40;19.48;;;;;;;;;;5092685;28;20067;-52
2022/12/02 04:50:08;;;;;;;40.67;20.65;;;3.80;99.90;;;;;;5089979;28;20040;-50
2022/12/02 04:52:37;;;;;;;44.45;20.63;;;;;;;;;;5081856;28;20036;-50
2022/12/02 04:55:03;;;;;;;41.45;19.95;;;3.70;99.90;;;;;;5086273;28;20515;-50
2022/12/02 04:57:29;;;;;;;42.17;21.58;;;;;;;;;;5084534;28;20032;-51
2022/12/02 04:59:55;;;;;;;39.33;19.80;;;3.70;99.90;;;;;;5064879;28;20036;-51
2022/12/02 05:02:20;;;;;;;42.00;19.98;;;3.80;99.90;;;;;;5093758;28;20045;-52
2022/12/02 05:04:46;;;;;;;44.67;19.88;;;;;;;;;;5064190;28;20501;-53
2022/12/02 05:07:13;;;;;;;39.05;19.63;;;;;;;;;;5055048;28;20136;-49
2022/12/02 05:09:39;;;;;;;43.08;20.73;;;;;;;;;;5102234;28;20044;-51
2022/12/02 05:12:05;;;;;;;40.17;19.60;;;;;;;;;;5073659;28;20089;-49
2022/12/02 05:14:31;;;;;;;40.22;19.40;;;;;;;;;;5071755;28;20054;-50
2022/12/02 05:16:57;;;;;;;38.28;18.35;;;;;;;;;;5071542;28;20511;-53
2022/12/02 05:19:23;;;;;;;34.22;18.50;;;;;;;;;;5076210;28;20406;-53
2022/12/02 05:21:48;;;;;;;43.25;19.25;;;3.70;99.90;;;;;;5059371;28;20115;-51
2022/12/02 05:24:15;;;;;;;40.53;19.77;;;3.70;99.90;;;;;;5073073;28;20173;-49
2022/12/02 05:26:41;;;;;;;36.58;18.77;;;3.70;99.90;;;;;;5079742;28;20044;-48
2022/12/02 05:29:07;;;;;;;44.10;20.05;;;3.70;99.90;;;;;;5084601;28;20038;-51
2022/12/02 05:31:33;;;;;;;37.58;18.35;;;;;;;;;;5096851;28;20044;-50
2022/12/02 05:33:59;;;;;;;43.45;20.58;;;;;;;;;;5083636;28;20043;-52
2022/12/02 05:36:25;;;;;;;43.42;20.73;;;;;;;;;;5076765;28;20048;-49
2022/12/02 05:38:51;;;;;;;39.10;18.70;;;;;;;;;;5075280;28;20481;-49
2022/12/02 05:41:17;;;;;;;41.97;18.90;;;;;;;;;;5074084;28;20037;-53
2022/12/02 05:43:43;;;;;;;40.13;19.90;;;;;;;;;;5083109;28;20047;-52
2022/12/02 05:46:20;;;;;;;43.22;19.52;;;3.90;99.90;;;;;;5078407;28;20396;-49
2022/12/02 05:48:48;;;;;;;40.47;20.85;;;3.70;99.90;;;;;;5084747;28;20492;-52
2022/12/02 05:51:19;;;;;;;43.53;19.88;;;3.60;99.90;;;;;;5074098;28;20404;-49
2022/12/02 05:53:46;;;;;;;45.60;19.73;;;;;;;;;;5080224;28;20036;-53
2022/12/02 05:56:24;;;;;;;44.22;20.75;;;;;;;;;;5074913;28;20036;-49
2022/12/02 05:58:50;;;;;;;48.13;20.65;;;;;;;;;;5079530;28;20228;-53
2022/12/02 06:01:21;;;;;;;43.17;22.63;;;;;;;;;;5076024;28;20115;-52
2022/12/02 06:03:47;;;;;;;47.83;20.23;;;;;;;;;;5068994;28;20485;-53
2022/12/02 06:06:14;;;;;;;44.63;20.05;;;;;;;;;;5086496;28;20040;-52
2022/12/02 06:08:41;;;;;;;45.13;20.90;;;;;;;;;;5091642;28;20447;-49
2022/12/02 06:11:30;;;;;;;45.65;20.90;;;;;;;;;;5099137;28;20035;-52
2022/12/02 06:13:57;;;;;;;45.58;21.20;;;;;;;;;;5074424;28;20044;-53
2022/12/02 06:16:25;;;;;;;48.75;21.42;;;;;;;;;;5068366;28;20093;-53
2022/12/02 06:18:51;;;;;;;47.40;20.33;;;;;;;;;;5094835;28;20036;-53
2022/12/02 06:21:18;;;;;;;47.67;21.85;;;;;;;;;;5096341;28;20051;-52
2022/12/02 06:23:46;;;;;;;44.90;21.13;;;;;;;;;;5101800;28;20044;-51
2022/12/02 06:26:13;;;;;;;48.55;21.83;;;2.80;99.90;;;;;;5094928;28;20063;-52
2022/12/02 06:28:41;;;;;;;46.80;21.38;;;;;;;;;;5092831;28;20058;-49
2022/12/02 06:31:20;;;;;;;50.53;23.65;;;2.70;99.90;;;;;;5095725;28;20028;-52
2022/12/02 06:33:48;;;;;;;49.80;22.48;;;;;;;;;;5074940;28;20048;-50
2022/12/02 06:36:17;;;;;;;50.72;21.70;;;;;;;;;;5092588;28;20714;-50
2022/12/02 06:38:54;;;;;;;54.17;22.83;;;2.50;99.90;;;;;;5091625;28;20036;-51
2022/12/02 06:41:21;;;;;;;51.60;23.08;;;;;;;;;;5092866;28;20040;-49
2022/12/02 06:46:34;;;;;;;58.80;24.50;;;2.40;99.90;;;;;;5092771;28;20498;-50
2022/12/02 06:49:11;;;;;;;51.22;22.30;;;2.00;99.90;;;;;;5091464;28;20042;-53
2022/12/02 06:51:37;;;;;;;55.88;22.02;;;2.40;99.90;;;;;;5099045;28;20078;-49
2022/12/02 06:54:04;;;;;;;48.45;22.77;;;;;;;;;;5088791;28;20036;-49
2022/12/02 06:56:30;;;;;;;53.47;21.98;;;;;;;;;;5091660;28;20120;-53
2022/12/02 06:59:01;;;;;;;54.00;22.67;;;2.80;99.90;;;;;;5092097;28;20040;-49
2022/12/02 07:01:27;;;;;;;60.38;24.15;;;;;;;;;;5095814;28;20040;-53
2022/12/02 07:04:04;;;;;;;54.92;22.70;;;2.70;99.90;;;;;;5092424;28;20506;-52
2022/12/02 07:06:31;;;;;;;51.78;23.05;;;;;;;;;;5092304;28;20040;-53
2022/12/02 07:08:58;;;;;;;57.53;24.27;;;;;;;;;;5091848;28;20452;-51
2022/12/02 07:14:22;;;;;;;53.72;22.77;;;;;;;;;;5092971;28;20039;-52
2022/12/02 07:16:49;;;;;;;60.38;25.83;;;;;;;;;;5098422;28;20051;-53
2022/12/02 07:19:16;;;;;;;48.33;21.27;;;;;;;;;;5086780;28;20043;-52
2022/12/02 07:21:41;;;;;;;51.25;25.00;;;2.60;99.90;;;;;;5092042;28;20565;-52
2022/12/02 07:24:14;;;;;;;52.40;23.52;;;;;;;;;;5093187;28;20118;-52
2022/12/02 07:26:44;;;;;;;53.88;23.80;;;2.70;99.90;;;;;;5092005;28;20085;-52
2022/12/02 07:29:12;;;;;;;51.30;22.27;;;;;;;;;;5090546;28;20267;-52
2022/12/02 07:31:43;;;;;;;46.15;22.15;;;;;;;;;;5089462;28;20445;-53
2022/12/02 07:34:09;;;;;;;48.40;21.40;;;;;;;;;;5101711;28;20049;-52
2022/12/02 07:36:34;;;;;;;52.20;22.58;;;2.80;99.90;;;;;;5089815;28;20047;-50
2022/12/02 07:39:00;;;;;;;49.92;23.38;;;;;;;;;;5090876;28;20036;-49
2022/12/02 07:41:26;;;;;;;53.15;24.20;;;2.80;99.90;;;;;;5091896;28;20071;-49
2022/12/02 07:43:53;;;;;;;50.08;22.77;;;;;;;;;;5102424;28;20035;-51
2022/12/02 07:46:19;;;;;;;48.72;23.20;;;2.80;99.90;;;;;;5092394;28;20066;-50
2022/12/02 07:48:45;;;;;;;52.75;21.77;;;;;;;;;;5101805;28;20564;-53
2022/12/02 07:51:11;;;;;;;53.22;23.17;;;2.70;99.90;;;;;;5093453;28;20047;-52
2022/12/02 07:53:37;;;;;;;47.05;22.17;;;;;;;;;;5087855;28;20394;-49
2022/12/02 07:56:03;;;;;;;50.47;23.02;;;;;;;;;;5098472;28;20047;-49
2022/12/02 07:58:29;;;;;;;49.83;22.92;;;;;;;;;;5093196;28;20559;-53
2022/12/02 08:00:55;;;;;;;47.53;21.67;;;;;;;;;;5091195;28;20050;-52
2022/12/02 08:03:21;;;;;;;52.03;21.80;;;;;;;;;;5097463;28;20237;-52
2022/12/02 08:05:47;;;;;;;47.63;22.70;;;2.70;99.90;;;;;;5094907;28;20040;-52
2022/12/02 08:08:12;;;;;;;49.38;24.35;;;2.70;99.90;;;;;;5072699;28;20071;-53
2022/12/02 08:10:38;;;;;;;48.92;20.40;;;;;;;;;;5091022;28;20115;-53
2022/12/02 08:13:04;;;;;;;52.53;21.77;;;;;;;;;;5090951;28;20040;-52
2022/12/02 08:15:30;;;;;;;44.78;20.75;;;;;;;;;;5078186;28;20040;-53
2022/12/02 08:17:56;;;;;;;51.03;21.67;;;;;;;;;;5090440;28;20051;-52
2022/12/02 08:20:23;;;;;;;44.40;20.23;;;;;;;;;;5091211;28;20121;-50
2022/12/02 08:22:49;;;;;;;43.70;18.92;;;;;;;;;;5094016;28;20036;-51
2022/12/02 08:25:15;;;;;;;45.88;19.55;;;;;;;;;;5097695;28;20039;-51
2022/12/02 08:27:40;;;;;;;41.03;17.67;;;2.50;99.90;;;;;;5094820;28;20032;-50
2022/12/02 08:30:08;;;;;;;38.72;17.85;;;;;;;;;;5074939;28;20031;-50
2022/12/02 08:32:34;;;;;;;42.28;19.00;;;;;;;;;;5090554;28;20036;-53
2022/12/02 08:35:00;;;;;;;37.47;16.17;;;;;;;;;;5090463;28;20036;-52
2022/12/02 08:37:26;;;;;;;39.50;17.50;;;;;;;;;;5072186;28;20051;-53
2022/12/02 08:39:52;;;;;;;37.30;16.63;;;;;;;;;;5090540;28;20036;-52
2022/12/02 08:42:18;;;;;;;34.90;15.93;;;;;;;;;;5097481;28;20032;-48
2022/12/02 08:44:44;;;;;;;32.00;15.52;;;3.10;99.90;;;;;;5089766;28;20043;-52
2022/12/02 08:47:10;;;;;;;34.67;14.20;;;;;;;;;;5095800;28;20039;-53
2022/12/02 08:49:35;;;;;;;38.05;15.93;;;3.50;99.90;;;;;;5091575;28;20097;-52
2022/12/02 08:52:01;;;;;;;31.50;15.63;;;;;;;;;;5090605;28;20088;-53
2022/12/02 08:54:27;;;;;;;35.25;15.80;;;;;;;;;;5086251;28;20493;-52
2022/12/02 08:56:55;;;;;;;43.50;18.98;;;;;;;;;;5090026;28;20039;-53
2022/12/02 08:59:21;;;;;;;34.95;16.33;;;;;;;;;;5090529;28;20094;-49
2022/12/02 09:01:48;;;;;;;40.38;18.08;;;;;;;;;;5090618;28;20119;-52
2022/12/02 09:04:13;;;;;;;39.17;17.15;;;3.90;99.90;;;;;;5072406;28;20184;-51
2022/12/02 09:06:40;;;;;;;35.20;16.35;;;3.90;99.90;;;;;;5089977;28;20047;-53
2022/12/02 09:09:06;;;;;;;39.35;18.48;;;;;;;;;;5089539;28;20440;-53
2022/12/02 09:11:32;;;;;;;39.90;17.58;;;;;;;;;;5090340;28;20040;-53
2022/12/02 09:13:58;;;;;;;46.13;23.58;;;;;;;;;;5107422;22;20054;-59
2022/12/02 09:16:24;;;;;;;44.63;21.20;;;4.30;99.90;;;;;;5096880;28;20044;-59
2022/12/02 09:18:50;;;;;;;47.45;21.25;;;;;;;;;;5088931;28;20029;-58
2022/12/02 09:21:16;;;;;;;44.28;20.58;;;;;;;;;;5082007;28;20040;-57
2022/12/02 09:23:42;;;;;;;48.00;21.75;;;;;;;;;;5075042;28;20093;-56
2022/12/02 09:26:08;;;;;;;43.75;20.25;;;;;;;;;;5077021;28;20051;-57
2022/12/02 09:28:34;;;;;;;36.58;18.90;;;;;;;;;;5073497;28;20295;-57
2022/12/02 09:31:00;;;;;;;34.22;17.17;;;;;;;;;;5076505;28;20550;-59
2022/12/02 09:33:26;;;;;;;36.80;18.33;;;;;;;;;;5072374;28;20036;-58
2022/12/02 09:35:52;;;;;;;34.45;17.02;;;;;;;;;;5077577;28;20044;-56
2022/12/02 09:38:18;;;;;;;30.85;15.32;;;;;;;;;;5074917;28;20522;-58
2022/12/02 09:40:44;;;;;;;33.17;17.90;;;;;;;;;;5075020;28;20044;-59
2022/12/02 09:43:10;;;;;;;33.55;17.27;;;4.70;99.90;;;;;;5076365;28;20037;-59
2022/12/02 09:45:36;;;;;;;33.50;17.83;;;;;;;;;;5073195;28;20404;-59
2022/12/02 09:48:02;;;;;;;34.53;17.25;;;;;;;;;;5075329;28;20032;-58
2022/12/02 09:50:28;;;;;;;36.55;18.40;;;;;;;;;;5072394;28;20059;-58
2022/12/02 09:52:57;;;;;;;30.10;15.00;;;;;;;;;;5059835;28;20119;-58
2022/12/02 09:55:23;;;;;;;29.50;14.35;;;;;;;;;;5063498;28;20124;-58
2022/12/02 09:57:49;;;;;;;26.23;14.35;;;4.70;99.90;;;;;;5069096;28;20037;-58
2022/12/02 10:00:16;;;;;;;27.52;13.23;;;;;;;;;;5075866;28;20116;-58
2022/12/02 10:02:44;;;;;;;26.67;14.10;;;;;;;;;;5080182;28;20554;-56
2022/12/02 10:05:15;;;;;;;25.23;12.57;;;;;;;;;;5081196;28;20082;-56
2022/12/02 10:07:41;;;;;;;27.77;12.95;;;;;;;;;;5076989;28;20047;-56
2022/12/02 10:10:11;;;;;;;27.38;14.20;;;;;;;;;;5071341;28;20040;-56
2022/12/02 10:12:37;;;;;;;24.27;12.52;;;;;;;;;;5078494;28;20051;-56
2022/12/02 10:15:03;;;;;;;24.23;13.40;;;;;;;;;;5073112;28;20047;-56
2022/12/02 10:17:29;;;;;;;30.13;14.70;;;;;;;;;;5091738;28;20047;-56
2022/12/02 10:19:56;;;;;;;26.13;13.82;;;;;;;;;;5080594;28;20040;-56
2022/12/02 10:22:22;;;;;;;24.27;12.77;;;;;;;;;;5077385;28;20577;-56
2022/12/02 10:24:48;;;;;;;21.67;12.65;;;;;;;;;;5089976;28;20587;-56
2022/12/02 10:27:23;;;;;;;27.50;13.85;;;;;;;;;;5074290;28;20036;-56
2022/12/02 10:29:49;;;;;;;25.50;13.73;;;;;;;;;;5078361;28;20033;-58
2022/12/02 10:32:23;;;;;;;24.00;13.48;;;;;;;;;;5073893;28;20040;-58
2022/12/02 10:35:02;;;;;;;23.70;12.03;;;3.70;99.90;;;;;;5077951;28;20033;-57
2022/12/02 10:37:28;;;;;;;25.65;13.05;;;;;;;;;;5081929;28;20036;-58
2022/12/02 10:40:17;;;;;;;27.10;13.40;;;;;;;;;;5076873;28;20064;-58
2022/12/02 10:42:44;;;;;;;30.55;13.75;;;;;;;;;;5067538;28;20040;-58
2022/12/02 10:45:23;;;;;;;27.05;14.75;;;;;;;;;;5075762;28;20040;-58
2022/12/02 10:47:50;;;;;;;30.48;15.13;;;;;;;;;;5078041;28;20032;-58
2022/12/02 10:50:18;;;;;;;23.77;13.32;;;4.10;99.90;;;;;;5074979;28;20510;-56
2022/12/02 10:52:49;;;;;;;28.33;14.43;;;;;;;;;;5082092;28;20060;-56
2022/12/02 10:55:16;;;;;;;26.77;13.55;;;4.20;99.90;;;;;;5081594;28;20421;-56
2022/12/02 10:57:43;;;;;;;24.80;13.20;;;;;;;;;;5075209;28;20040;-56
2022/12/02 11:00:23;;;;;;;30.80;13.73;;;;;;;;;;5080971;28;20043;-56
2022/12/02 11:02:55;;;;;;;28.33;13.73;;;4.10;99.90;;;;;;5080521;28;20040;-56
2022/12/02 11:05:25;;;;;;;27.08;13.82;;;4.20;99.90;;;;;;5077439;28;20044;-56
2022/12/02 11:07:56;;;;;;;27.40;14.73;;;;;;;;;;5078555;28;20051;-56
2022/12/02 11:10:23;;;;;;;28.45;13.13;;;;;;;;;;5076008;28;20466;-56
2022/12/02 11:12:49;;;;;;;23.13;12.60;;;;;;;;;;5054963;28;20040;-56
2022/12/02 11:15:34;;;;;;;28.80;14.40;;;;;;;;;;5086009;28;20089;-57
2022/12/02 11:18:00;;;;;;;;;;;;;;;;;;5086976;28;20044;-56
2022/12/02 11:20:31;;;;;;;23.98;13.23;;;;;;;;;;5081584;28;19916;-56
2022/12/02 11:23:00;;;;;;;22.13;12.45;;;;;;;;;;5075673;28;20449;-56
2022/12/02 11:25:46;;;;;;;23.60;12.40;;;4.70;99.90;;;;;;5079480;28;20310;-56
2022/12/02 11:28:18;;;;;;;24.92;12.75;;;;;;;;;;5080453;28;20067;-56
2022/12/02 11:30:46;;;;;;;24.17;12.65;;;;;;;;;;5084927;28;20067;-55
2022/12/02 11:33:13;;;;;;;25.50;13.43;;;;;;;;;;5074252;28;20122;-56
2022/12/02 11:35:58;;;;;;;26.30;13.23;;;;;;;;;;5077270;28;20040;-56
2022/12/02 11:38:25;;;;;;;23.83;13.55;;;;;;;;;;5059005;28;20052;-55
2022/12/02 11:40:50;;;;;;;23.55;13.23;;;4.70;99.90;;;;;;5081424;28;20512;-57
2022/12/02 11:43:40;;;;;;;26.70;14.65;;;;;;;;;;5077494;28;20036;-56
2022/12/02 11:46:06;;;;;;;26.52;15.35;;;;;;;;;;5064957;28;20047;-58
2022/12/02 11:48:31;;;;;;;26.67;14.30;;;4.50;99.90;;;;;;5082393;28;20090;-59
2022/12/02 11:50:57;;;;;;;29.13;14.43;;;;;;;;;;5073745;28;20076;-55
2022/12/02 11:53:24;;;;;;;30.73;15.77;;;;;;;;;;5082529;28;20118;-56
2022/12/02 11:55:51;;;;;;;26.48;15.20;;;;;;;;;;5077373;28;20083;-56
2022/12/02 11:58:26;;;;;;;32.08;17.33;;;;;;;;;;5072165;28;20094;-56
2022/12/02 12:01:12;;;;;;;28.67;16.00;;;4.50;99.90;;;;;;5087860;28;20028;-57
2022/12/02 12:03:42;;;;;;;29.60;17.50;;;;;;;;;;5081114;28;20079;-56
2022/12/02 12:06:15;;;;;;;33.13;18.25;;;4.20;99.90;;;;;;5075281;28;20331;-56
2022/12/02 12:08:43;;;;;;;31.48;18.08;;;;;;;;;;5079552;28;20464;-59
2022/12/02 12:11:24;;;;;;;35.78;18.67;;;4.70;99.90;;;;;;5074406;28;20044;-59
2022/12/02 12:14:08;;;;;;;35.10;19.60;;;;;;;;;;5077067;28;20082;-59
2022/12/02 12:16:36;;;;;;;34.80;19.65;;;;;;;;;;5074175;28;20128;-59
2022/12/02 12:19:21;;;;;;;36.40;19.23;;;5.90;99.90;;;;;;5063402;28;20051;-56
2022/12/02 12:21:52;;;;;;;36.70;19.20;;;;;;;;;;5076399;28;20050;-56
2022/12/02 12:24:24;;;;;;;33.10;19.08;;;6.00;99.90;;;;;;5080934;28;20036;-56
2022/12/02 12:26:57;;;;;;;40.35;21.10;;;;;;;;;;5083095;28;20046;-56
2022/12/02 12:29:34;;;;;;;37.00;20.45;;;6.30;99.90;;;;;;5079720;28;20044;-55
2022/12/02 12:32:00;;;;;;;33.67;20.15;;;;;;;;;;5070830;28;20037;-55
2022/12/02 12:34:26;;;;;;;34.67;18.50;;;;;;;;;;5060010;28;20287;-56
2022/12/02 12:36:52;;;;;;;34.65;20.23;;;;;;;;;;5086142;28;20032;-56
2022/12/02 12:39:18;;;;;;;34.60;20.02;;;;;;;;;;5083683;28;20039;-56
2022/12/02 12:41:45;;;;;;;32.50;19.35;;;;;;;;;;5078099;28;20032;-55
2022/12/02 12:44:11;;;;;;;30.90;18.58;;;;;;;;;;5072536;28;20328;-53
2022/12/02 12:46:37;;;;;;;31.83;16.58;;;;;;;;;;5077467;28;20043;-56
2022/12/02 12:49:03;;;;;;;32.45;18.73;;;;;;;;;;5070164;28;20048;-54
2022/12/02 12:51:29;;;;;;;29.13;16.88;;;;;;;;;;5077574;28;20032;-56
2022/12/02 12:53:55;;;;;;;27.98;16.70;;;8.60;99.90;;;;;;5077850;28;20093;-55
2022/12/02 12:56:22;;;;;;;28.75;16.85;;;;;;;;;;5075830;28;20103;-54
2022/12/02 12:58:48;;;;;;;27.63;16.42;;;;;;;;;;5072707;28;20707;-56
2022/12/02 13:01:14;;;;;;;26.98;15.63;;;;;;;;;;5075284;28;20493;-56
2022/12/02 13:03:40;;;;;;;25.83;14.82;;;;;;;;;;5078809;28;20032;-56
2022/12/02 13:06:06;;;;;;;23.60;14.82;;;;;;;;;;5056240;28;20037;-56
2022/12/02 13:08:32;;;;;;;26.88;14.50;;;;;;;;;;5076899;28;20043;-56
2022/12/02 13:10:58;;;;;;;23.75;14.13;;;6.70;99.90;;;;;;5085588;28;20082;-56
2022/12/02 13:13:24;;;;;;;24.33;13.73;;;;;;;;;;5075644;28;20068;-55
2022/12/02 13:15:50;;;;;;;25.13;14.23;;;;;;;;;;5072829;28;20032;-56
2022/12/02 13:18:16;;;;;;;24.42;14.43;;;6.00;99.90;;;;;;5075114;28;20029;-56
2022/12/02 13:20:42;;;;;;;26.70;14.15;;;;;;;;;;5079400;28;20058;-54
2022/12/02 13:23:08;;;;;;;25.27;14.82;;;;;;;;;;5056599;28;20397;-56
2022/12/02 13:25:35;;;;;;;23.48;14.07;;;;;;;;;;5059523;28;20390;-56
2022/12/02 13:28:01;;;;;;;23.83;13.45;;;5.80;99.90;;;;;;5077738;28;20051;-56
2022/12/02 13:30:27;;;;;;;23.73;13.68;;;;;;;;;;5081719;28;20045;-56
2022/12/02 13:32:53;;;;;;;22.20;13.38;;;5.60;99.90;;;;;;5081025;28;20509;-56
2022/12/02 13:35:19;;;;;;;26.88;14.15;;;5.50;99.90;;;;;;5056672;28;20036;-56
2022/12/02 13:37:45;;;;;;;26.10;13.13;;;;;;;;;;5084136;28;20082;-56
2022/12/02 13:40:16;;;;;;;22.40;12.13;;;;;;;;;;5073640;28;20537;-56
2022/12/02 13:42:42;;;;;;;23.20;13.00;;;5.30;99.90;;;;;;5076128;28;20724;-56
2022/12/02 13:45:08;;;;;;;22.63;12.68;;;;;;;;;;5073537;28;20045;-56
2022/12/02 13:47:34;;;;;;;23.00;13.00;;;;;;;;;;5077814;28;20050;-56
2022/12/02 13:50:00;;;;;;;22.77;14.40;;;;;;;;;;5075959;28;20044;-56
2022/12/02 13:52:26;;;;;;;24.08;14.50;;;;;;;;;;5078897;28;20040;-55
2022/12/02 13:54:52;;;;;;;23.25;12.98;;;;;;;;;;5081998;28;20098;-56
2022/12/02 13:57:19;;;;;;;25.13;14.90;;;;;;;;;;5078227;28;20029;-56
2022/12/02 13:59:45;;;;;;;28.23;16.20;;;;;;;;;;5076057;28;20041;-56
2022/12/02 14:02:11;;;;;;;22.98;12.52;;;4.80;99.90;;;;;;5084057;28;20036;-56